Latest Weather Observations for Maria Island

IDT60901

Issued at 3:21 pm EST Monday 23 September 2019 (issued every 10 minutes, with the page automatically refreshed every 10 minutes)

About weather observations | Map of Hobart area stations | Latest observations for Hobart area | Other Formats
Station Details ID: 092124 Name: MARIA ISLAND (POINT LESUEUR) Lat: -42.66 Lon: 148.02 Height: 28.0 m
Data from the previous 72 hours. | See also: Recent months at Maria Island
Date/Time
EST
Temp
°C
App
Temp
°C
Dew
Point
°C
Rel
Hum
%
Delta-T
°C
Wind Press
QNH
hPa
Press
MSL
hPa
Rain since
9am
mm
Dir  Spd
km/h
Gust
km/h
Spd
kts
Gust
kts
23/03:00pm 11.9 7.1 5.8 66 2.8 S 20 26 11 14 1017.6 1017.6 0.0
23/02:30pm 12.2 5.4 5.1 62 3.3 S 30 39 16 21 1017.1 1017.1 0.0
23/02:00pm 13.2 8.3 4.9 57 3.8 S 20 24 11 13 1017.1 1017.1 0.0
23/01:30pm 13.1 8.4 5.3 59 3.6 S 19 22 10 12 1017.3 1017.3 0.0
23/01:00pm 12.3 7.3 4.8 60 3.4 S 20 24 11 13 1017.3 1017.3 0.0
23/12:30pm 12.1 7.3 4.6 60 3.4 S 19 20 10 11 1017.5 1017.5 0.0
23/12:00pm 12.7 7.3 4.7 58 3.7 S 22 26 12 14 1017.7 1017.7 0.0
23/11:30am 12.2 8.5 4.2 58 3.6 S 13 20 7 11 1017.9 1017.9 0.0
23/11:00am 12.1 9.6 3.9 57 3.7 SSE 6 9 3 5 1018.1 1018.1 0.0
23/10:30am 11.6 9.6 2.4 53 4.0 S 2 6 1 3 1018.2 1018.2 0.0
23/10:00am 11.1 8.5 3.4 59 3.4 NNE 6 9 3 5 1018.3 1018.3 0.0
23/09:30am 10.4 7.3 3.4 62 3.1 N 9 13 5 7 1018.4 1018.4 0.0
23/09:00am 10.2 6.7 3.3 62 3.0 N 11 13 6 7 1018.4 1018.4 0.0
23/08:30am 9.9 6.3 3.0 62 3.0 NNW 11 13 6 7 1018.4 1018.4 0.0
23/08:00am 9.0 5.5 3.6 69 2.3 NNW 11 13 6 7 1018.4 1018.4 0.0
23/07:30am 8.2 5.5 3.9 74 1.9 N 7 11 4 6 1018.3 1018.3 0.0
23/07:00am 6.9 4.3 3.0 76 1.6 NNW 6 6 3 3 1018.1 1018.1 0.0
23/06:30am 6.8 3.9 2.7 75 1.7 WNW 7 9 4 5 1017.9 1017.9 0.0
23/06:00am 6.6 3.3 2.3 74 1.8 NW 9 11 5 6 1017.9 1017.9 0.0
23/05:30am 7.3 4.1 2.8 73 1.9 NNW 9 11 5 6 1017.6 1017.6 0.0
23/05:00am 7.8 4.0 1.6 65 2.5 NW 11 15 6 8 1017.5 1017.5 0.0
23/04:30am 7.7 3.5 1.8 66 2.4 NW 13 15 7 8 1017.6 1017.6 0.0
23/04:00am 7.8 3.9 1.4 64 2.6 NW 11 13 6 7 1017.6 1017.6 0.0
23/03:30am 7.8 3.9 1.2 63 2.7 NNW 11 17 6 9 1017.8 1017.8 0.0
23/03:00am 7.7 4.2 1.5 65 2.5 W 9 13 5 7 1017.8 1017.8 0.0
23/02:30am 7.6 3.8 1.5 65 2.5 NW 11 17 6 9 1017.8 1017.8 0.0
23/02:00am 7.9 3.7 1.5 64 2.6 NW 13 17 7 9 1018.0 1018.0 0.0
23/01:30am 8.1 3.2 1.7 64 2.6 NW 17 20 9 11 1018.2 1018.2 0.0
23/01:00am 8.3 4.1 1.9 64 2.6 NW 13 15 7 8 1018.4 1018.4 0.0
23/12:30am 8.4 4.5 1.3 61 2.9 WNW 11 17 6 9 1018.6 1018.6 0.0
23/12:00am 8.5 4.3 1.6 62 2.8 NW 13 19 7 10 1018.6 1018.6 0.0
 
Date/Time
EST
Temp
°C
App
Temp
°C
Dew
Point
°C
Rel
Hum
%
Delta-T
°C
Wind Press
QNH
hPa
Press
MSL
hPa
Rain since
9am
mm
Dir  Spd
km/h
Gust
km/h
Spd
kts
Gust
kts
22/11:30pm 8.3 3.8 1.9 64 2.6 WNW 15 19 8 10 1018.7 1018.7 0.0
22/11:00pm 8.5 3.3 2.3 65 2.6 WNW 19 20 10 11 1018.8 1018.8 0.0
22/10:30pm 7.8 4.6 2.9 71 2.1 NW 9 13 5 7 1018.9 1018.9 0.0
22/10:00pm 7.5 4.4 3.6 76 1.7 WNW 9 11 5 6 1019.0 1019.0 0.0
22/09:30pm 8.2 4.7 3.7 73 1.9 WNW 11 13 6 7 1018.9 1018.9 0.0
22/09:00pm 8.7 4.3 2.9 67 2.5 W 15 15 8 8 1018.7 1018.7 0.0
22/08:30pm 8.8 5.0 3.8 71 2.2 WSW 13 15 7 8 1018.6 1018.6 0.0
22/08:00pm 9.2 5.0 3.8 69 2.3 SW 15 17 8 9 1018.4 1018.4 0.0
22/07:30pm 9.4 4.4 3.8 68 2.4 SSW 19 22 10 12 1018.1 1018.1 0.0
22/07:00pm 9.4 3.5 4.0 69 2.4 SSW 24 30 13 16 1017.8 1017.8 0.0
22/06:30pm 9.9 2.8 3.4 64 2.8 SSW 30 37 16 20 1017.4 1017.4 0.0
22/06:00pm 9.8 3.1 3.5 65 2.7 SSW 28 32 15 17 1017.0 1017.0 0.0
22/05:30pm 10.2 2.6 3.9 65 2.8 SSW 33 37 18 20 1016.7 1016.7 0.0
22/05:00pm 10.9 5.7 3.7 61 3.2 S 20 28 11 15 1016.4 1016.4 0.0
22/04:30pm 11.3 5.6 4.7 64 3.0 S 24 28 13 15 1016.1 1016.1 0.0
22/04:00pm 11.4 6.0 4.6 63 3.1 SSW 22 35 12 19 1015.8 1015.8 0.0
22/03:30pm 11.5 7.1 4.5 62 3.2 S 17 19 9 10 1015.7 1015.7 0.0
22/03:00pm 11.5 4.9 4.3 61 3.2 SSW 28 33 15 18 1015.5 1015.5 0.0
22/02:30pm 10.7 3.8 4.6 66 2.7 SSW 30 35 16 19 1015.4 1015.4 0.0
22/02:00pm 11.4 6.1 3.2 57 3.6 SSW 20 28 11 15 1015.2 1015.2 0.0
22/01:30pm 13.8 6.2 0.5 40 5.6 W 30 39 16 21 1015.0 1015.0 0.0
22/01:00pm 13.5 6.2 0.2 40 5.6 WNW 28 37 15 20 1015.3 1015.3 0.0
22/12:30pm 13.5 6.7 0.5 41 5.5 WNW 26 35 14 19 1015.3 1015.3 0.0
22/12:00pm 12.4 8.2 1.4 47 4.7 WSW 13 17 7 9 1015.5 1015.5 0.0
22/11:30am 12.1 5.9 2.0 50 4.3 W 24 32 13 17 1015.4 1015.4 0.0
22/11:00am 12.2 6.3 1.5 48 4.5 WSW 22 32 12 17 1015.4 1015.4 0.0
22/10:30am 11.2 4.9 1.7 52 4.0 WSW 24 32 13 17 1015.3 1015.3 0.0
22/10:00am 11.5 5.6 2.0 52 4.1 WNW 22 32 12 17 1015.3 1015.3 0.0
22/09:30am 11.1 4.0 1.6 52 4.0 WNW 28 37 15 20 1015.0 1015.0 0.0
22/09:00am 10.5 2.8 2.1 56 3.6 W 32 39 17 21 1015.1 1015.1 0.4
22/08:30am 9.9 4.1 2.3 59 3.2 WNW 22 30 12 16 1015.0 1015.0 0.4
22/08:00am 9.8 4.7 2.9 62 3.0 WNW 19 30 10 16 1014.8 1014.8 0.4
22/07:30am 9.0 3.6 2.3 63 2.8 WNW 20 28 11 15 1014.5 1014.5 0.4
22/07:00am 8.2 2.9 1.8 64 2.6 WNW 19 22 10 12 1014.2 1014.2 0.4
22/06:30am 8.4 3.2 2.2 65 2.6 NW 19 26 10 14 1013.7 1013.7 0.4
22/06:00am 8.3 3.4 1.7 63 2.7 NW 17 24 9 13 1013.5 1013.5 0.4
22/05:30am 8.5 3.0 2.1 64 2.7 WNW 20 33 11 18 1012.9 1012.9 0.4
22/05:00am 8.5 3.1 2.7 67 2.4 NNW 20 24 11 13 1012.4 1012.4 0.4
22/04:30am 8.4 4.3 2.4 66 2.5 NW 13 19 7 10 1012.0 1012.0 0.4
22/04:00am 8.5 4.1 2.5 66 2.5 NW 15 20 8 11 1011.7 1011.7 0.4
22/03:30am 8.7 3.3 2.5 65 2.6 NW 20 24 11 13 1011.2 1011.2 0.4
22/03:00am 8.7 4.2 2.3 64 2.7 NW 15 19 8 10 1010.6 1010.6 0.4
22/02:30am 9.2 4.0 2.3 62 2.9 W 19 33 10 18 1010.0 1010.0 0.4
22/02:00am 9.2 3.9 1.9 60 3.1 WNW 19 28 10 15 1009.6 1009.6 0.4
22/01:30am 9.5 4.9 1.7 58 3.2 WNW 15 28 8 15 1009.3 1009.3 0.4
22/01:00am 9.7 4.4 1.8 58 3.3 WNW 19 32 10 17 1008.7 1008.7 0.4
22/12:30am 10.1 3.1 2.2 58 3.3 W 28 41 15 22 1007.9 1007.9 0.4
22/12:08am 10.2 2.3 2.3 58 3.4 WSW 33 52 18 28 1007.2 1007.2 0.4
22/12:00am 10.4 1.5 3.0 60 3.2 W 39 52 21 28 1006.9 1006.9 0.4
 
Date/Time
EST
Temp
°C
App
Temp
°C
Dew
Point
°C
Rel
Hum
%
Delta-T
°C
Wind Press
QNH
hPa
Press
MSL
hPa
Rain since
9am
mm
Dir  Spd
km/h
Gust
km/h
Spd
kts
Gust
kts
21/11:40pm 10.3 3.1 3.1 61 3.1 W 30 48 16 26 1007.0 1007.0 0.4
21/11:30pm 10.3 1.8 2.9 60 3.2 W 37 46 20 25 1006.6 1006.6 0.4
21/11:00pm 10.6 0.4 3.2 60 3.2 W 46 65 25 35 1005.3 1005.3 0.4
21/10:30pm 10.9 0.3 3.0 58 3.4 W 48 65 26 35 1004.8 1004.8 0.4
21/10:29pm 10.9 0.7 3.2 59 3.4 W 46 63 25 34 1004.8 1004.8 0.4
21/10:10pm 11.0 2.9 3.1 58 3.4 W 35 57 19 31 1005.2 1005.2 0.4
21/10:00pm 11.2 2.7 3.3 58 3.5 WNW 37 54 20 29 1005.0 1005.0 0.4
21/09:33pm 11.6 1.8 3.4 57 3.6 WNW 44 65 24 35 1003.9 1003.9 0.4
21/09:30pm 11.8 0.9 3.6 57 3.6 WNW 50 65 27 35 1003.7 1003.7 0.4
21/09:01pm 12.9 3.5 5.3 60 3.5 NW 44 63 24 34 1002.9 1002.9 0.4
21/09:00pm 13.0 3.2 5.2 59 3.6 NW 46 63 25 34 1002.8 1002.8 0.4
21/08:47pm 12.9 4.0 7.6 70 2.6 NW 44 65 24 35 1001.7 1001.7 0.4
21/08:30pm 13.2 3.4 8.5 73 2.3 NNW 50 65 27 35 1001.0 1001.0 0.4
21/08:00pm 13.4 2.9 8.9 74 2.3 NNW 54 59 29 32 1000.7 1000.7 0.4
21/07:30pm 13.8 3.7 9.0 73 2.4 NNW 52 63 28 34 1000.3 1000.3 0.4
21/07:00pm 13.9 6.3 8.9 72 2.5 N 39 46 21 25 1000.3 1000.3 0.4
21/06:30pm 14.2 5.9 9.2 72 2.6 N 43 50 23 27 1000.0 1000.0 0.4
21/06:00pm 14.8 5.8 9.0 68 3.0 N 46 59 25 32 1000.4 1000.4 0.4
21/05:30pm 15.3 6.3 8.8 65 3.3 N 46 56 25 30 1000.5 1000.5 0.4
21/05:14pm 15.7 2.2 9.1 65 3.4 NNW 70 96 38 52 1001.0 1001.0 0.4
21/05:03pm 16.4 6.4 10.7 69 3.0 N 54 104 29 56 1000.2 1000.2 0.4
21/05:01pm 16.6 8.4 11.7 73 2.7 N 46 85 25 46 1000.8 1000.8 0.4
21/05:00pm 16.2 8.7 12.0 76 2.3 N 43 80 23 43 1000.7 1000.7 0.4
21/04:59pm 15.2 8.4 11.8 80 1.8 N 39 80 21 43 1001.3 1001.3 0.4
21/04:30pm 16.3 9.3 11.2 72 2.7 N 39 50 21 27 999.9 999.9 0.4
21/04:00pm 15.7 9.6 11.9 78 2.1 N 35 39 19 21 998.9 999.0 0.4
21/03:48pm 15.8 9.3 11.6 76 2.3 N 37 56 20 30 999.6 999.6 0.4
21/03:30pm 15.6 10.3 12.5 82 1.7 N 32 39 17 21 1001.0 1001.0 0.4
21/03:00pm 15.5 10.6 14.2 92 0.7 N 33 44 18 24 1001.9 1001.9 0.4
21/02:30pm 14.4 9.0 12.8 90 0.9 N 33 37 18 20 1001.6 1001.6 0.2
21/02:00pm 15.6 10.1 12.5 82 1.7 N 33 37 18 20 1001.6 1001.6 0.0
21/01:30pm 16.3 11.0 13.2 82 1.7 N 33 39 18 21 1002.3 1002.3 0.0
21/01:00pm 15.8 11.5 13.3 85 1.4 N 28 32 15 17 1002.3 1002.3 0.0
21/12:30pm 14.1 8.7 12.1 88 1.1 N 32 33 17 18 1003.5 1003.5 0.0
21/12:00pm 14.7 8.9 12.6 87 1.2 N 35 39 19 21 1004.1 1004.1 0.0
21/11:30am 14.8 8.6 12.7 87 1.2 N 37 41 20 22 1004.7 1004.7 0.0
21/11:00am 14.9 8.0 12.8 87 1.2 N 41 44 22 24 1005.1 1005.1 0.0
21/10:30am 15.1 7.9 13.0 87 1.2 N 43 52 23 28 1005.7 1005.7 0.0
21/10:00am 14.5 7.6 12.9 90 0.9 N 41 46 22 25 1006.2 1006.2 0.0
21/09:30am 14.7 7.9 13.2 91 0.8 N 41 48 22 26 1006.6 1006.6 0.0
21/09:00am 14.7 8.4 13.6 93 0.6 N 39 46 21 25 1007.0 1007.0 0.0
21/08:30am 14.0 8.0 13.2 95 0.4 N 37 44 20 24 1007.7 1007.7 0.0
21/08:00am 13.9 8.7 13.4 97 0.3 N 33 39 18 21 1007.8 1007.8 0.0
21/07:30am 13.2 7.5 12.9 98 0.2 N 35 37 19 20 1008.5 1008.5 0.0
21/07:00am 13.3 8.9 13.0 98 0.2 N 28 32 15 17 1009.0 1009.0 0.0
21/06:30am 13.0 9.3 12.7 98 0.2 N 24 28 13 15 1009.5 1009.5 0.0
21/06:00am 13.2 8.8 12.9 98 0.2 N 28 30 15 16 1009.4 1009.4 0.0
21/05:30am 13.5 10.3 13.2 98 0.2 N 22 28 12 15 1009.5 1009.5 0.0
21/05:00am 13.6 9.7 13.3 98 0.2 N 26 30 14 16 1009.9 1009.9 0.0
21/04:30am 13.1 9.4 12.8 98 0.2 N 24 26 13 14 1010.3 1010.3 0.0
21/04:00am 13.2 8.8 12.9 98 0.2 N 28 30 15 16 1010.6 1010.6 0.0
21/03:30am 12.8 9.9 12.3 97 0.3 N 19 22 10 12 1011.2 1011.2 0.0
21/03:00am 12.9 9.1 12.4 97 0.3 N 24 28 13 15 1011.7 1011.7 0.0
21/02:30am 13.0 8.4 12.4 96 0.3 N 28 32 15 17 1011.9 1011.9 0.0
21/02:00am 13.4 10.0 12.6 95 0.4 N 22 30 12 16 1012.5 1012.5 0.0
21/01:30am 13.4 8.9 12.6 95 0.4 N 28 35 15 19 1012.8 1012.8 0.0
21/01:00am 13.1 10.0 12.2 94 0.5 NNW 20 22 11 12 1013.6 1013.6 0.0
21/12:30am 13.9 9.1 12.8 93 0.6 N 30 35 16 19 1013.9 1013.9 0.0
21/12:00am 13.5 8.2 12.6 94 0.5 N 32 37 17 20 1014.3 1014.3 0.0
 
Date/Time
EST
Temp
°C
App
Temp
°C
Dew
Point
°C
Rel
Hum
%
Delta-T
°C
Wind Press
QNH
hPa
Press
MSL
hPa
Rain since
9am
mm
Dir  Spd
km/h
Gust
km/h
Spd
kts
Gust
kts
20/11:30pm 13.2 8.2 12.3 94 0.5 N 30 33 16 18 1014.8 1014.8 0.0
20/11:00pm 13.0 8.3 11.9 93 0.6 NNW 28 32 15 17 1015.1 1015.1 0.0
20/10:30pm 13.3 10.3 12.0 92 0.7 N 19 24 10 13 1015.4 1015.4 0.0
20/10:00pm 13.6 8.1 12.5 93 0.6 N 33 37 18 20 1015.3 1015.3 0.0
20/09:30pm 13.1 7.4 11.7 91 0.7 N 33 41 18 22 1015.4 1015.4 0.0
20/09:00pm 13.7 6.9 11.8 88 1.0 N 39 50 21 27 1015.1 1015.1 0.0
20/08:30pm 14.0 6.9 12.2 89 1.0 N 41 46 22 25 1014.8 1014.8 0.0
20/08:00pm 14.3 5.9 12.3 88 1.1 N 48 54 26 29 1014.5 1014.5 0.0
20/07:30pm 14.5 6.5 12.4 87 1.1 N 46 54 25 29 1014.5 1014.5 0.0
20/07:00pm 14.0 6.9 12.2 89 1.0 N 41 48 22 26 1014.6 1014.6 0.0
20/06:30pm 13.7 6.9 12.1 90 0.9 N 39 44 21 24 1014.6 1014.6 0.0
20/06:00pm 14.3 6.6 12.2 87 1.1 N 44 50 24 27 1014.6 1014.6 0.0
20/05:30pm 13.9 7.4 11.6 86 1.2 N 37 44 20 24 1014.7 1014.7 0.0
20/05:00pm 15.0 8.6 12.0 82 1.6 N 37 46 20 25 1014.7 1014.7 0.0
20/04:30pm 15.4 7.9 12.2 81 1.7 N 43 50 23 27 1014.1 1014.1 0.0
20/04:00pm 16.1 8.2 12.7 80 1.9 N 46 59 25 32 1013.9 1013.9 0.0
20/03:30pm 15.8 8.3 12.7 82 1.7 N 44 54 24 29 1014.1 1014.1 0.0

Latest Capital City Observations: Canberra | Sydney | Melbourne | Brisbane | Adelaide | Perth | Hobart | Darwin

Other formats

Comma delimited format used in spreadsheet applications
http://www.bom.gov.au/fwo/IDT60901/IDT60901.95988.axf

JavaScript Object Notation format (JSON) in row-major order
http://www.bom.gov.au/fwo/IDT60901/IDT60901.95988.json

Data quality

Most of these data are generated automatically and are frequently updated. Quality checks on data are not normally performed. It is possible for incorrect values to appear. Refer to information at About Latest Weather Observations and please check the disclaimer before using these data.